Time;durP1;ratioP1;P1;durP2;ratioP2;P2;SDS_P1;SDS_P2;PMS_P1;PMS_P2;Temp;Humidity;BMP_temperature;BMP_pressure;BME280_temperature;BME280_humidity;BME280_pressure;Samples;Min_cycle;Max_cycle;Signal;HPM_P1;HPM_P2
2022/07/28 00:01:53;;;;;;;1.37;1.07;;;;;;;11.08;100.00;101099.75;5010604;28;20200;-70
2022/07/28 00:04:19;;;;;;;0.93;0.90;;;;;;;11.03;100.00;101099.00;5002564;28;20494;-70
2022/07/28 00:06:45;;;;;;;0.80;0.80;;;;;;;10.96;100.00;101100.88;5006154;28;20619;-70
2022/07/28 00:09:13;;;;;;;2.33;1.30;;;;;;;10.93;100.00;101093.97;5002939;28;20212;-70
2022/07/28 00:11:39;;;;;;;2.63;1.17;;;;;;;11.15;100.00;101098.72;4997341;28;20557;-70
2022/07/28 00:14:06;;;;;;;2.53;1.00;;;;;;;10.99;100.00;101101.69;5000842;28;20573;-70
2022/07/28 00:16:32;;;;;;;1.97;1.30;;;;;;;10.69;100.00;101107.47;5014498;23;20233;-70
2022/07/28 00:18:59;;;;;;;1.33;1.07;;;;;;;10.79;100.00;101104.66;5000616;28;20207;-70
2022/07/28 00:21:25;;;;;;;1.30;1.20;;;;;;;10.80;100.00;101100.34;5015581;28;20213;-71
2022/07/28 00:23:51;;;;;;;3.37;1.47;;;;;;;10.84;100.00;101103.75;5002451;28;20219;-70
2022/07/28 00:26:19;;;;;;;2.70;1.20;;;;;;;10.85;100.00;101098.47;5015368;28;20227;-70
2022/07/28 00:28:46;;;;;;;1.40;1.07;;;;;;;10.62;100.00;101098.91;5012147;28;20198;-70
2022/07/28 00:31:13;;;;;;;1.87;1.13;;;;;;;10.53;100.00;101102.53;5016331;28;20257;-71
2022/07/28 00:33:41;;;;;;;1.47;1.00;;;;;;;10.37;100.00;101099.34;5006407;28;20200;-71
2022/07/28 00:36:08;;;;;;;1.10;0.87;;;;;;;10.70;100.00;101088.34;5014377;28;20587;-71
2022/07/28 00:38:36;;;;;;;1.60;1.10;;;;;;;10.83;100.00;101096.78;5008895;28;20203;-71
2022/07/28 00:41:12;;;;;;;1.33;1.10;;;;;;;10.66;100.00;101099.72;5001869;28;20673;-71
2022/07/28 00:43:40;;;;;;;1.80;1.50;;;;;;;10.73;100.00;101101.31;5005569;28;20288;-71
2022/07/28 00:46:08;;;;;;;1.57;1.27;;;;;;;10.63;100.00;101090.22;4998409;28;20211;-71
2022/07/28 00:48:37;;;;;;;0.83;0.83;;;;;;;10.55;100.00;101097.31;5006210;28;20204;-71
2022/07/28 00:51:03;;;;;;;2.50;1.50;;;;;;;10.73;100.00;101086.53;4997579;28;20206;-71
2022/07/28 00:53:30;;;;;;;1.47;0.93;;;;;;;10.69;100.00;101094.44;4993748;28;20222;-71
2022/07/28 00:55:57;;;;;;;5.53;1.03;;;;;;;10.65;100.00;101092.78;5002725;28;20232;-71
2022/07/28 00:58:25;;;;;;;1.00;1.00;;;;;;;10.58;100.00;101090.28;4996455;28;20205;-71
2022/07/28 01:00:53;;;;;;;1.33;1.20;;;;;;;10.63;100.00;101100.63;5000572;28;20203;-71
2022/07/28 01:03:20;;;;;;;3.13;1.20;;;;;;;10.54;100.00;101098.22;5008234;28;20721;-71
2022/07/28 01:05:59;;;;;;;1.23;1.13;;;;;;;10.49;100.00;101100.91;5005679;28;20217;-71
2022/07/28 01:08:33;;;;;;;1.33;1.20;;;;;;;10.47;100.00;101099.22;4997224;28;20682;-71
2022/07/28 01:11:05;;;;;;;1.27;0.93;;;;;;;10.40;100.00;101096.69;4997333;28;20214;-71
2022/07/28 01:13:39;;;;;;;2.83;1.37;;;;;;;10.32;100.00;101097.72;5000254;28;20222;-71
2022/07/28 01:16:07;;;;;;;5.00;1.40;;;;;;;10.26;100.00;101101.28;5001875;28;20230;-71
2022/07/28 01:18:41;;;;;;;1.60;1.43;;;;;;;10.13;100.00;101100.63;5004938;28;20666;-71
2022/07/28 01:21:12;;;;;;;1.07;1.03;;;;;;;10.21;100.00;101097.88;5000983;28;20208;-71
2022/07/28 01:24:05;;;;;;;1.53;1.30;;;;;;;10.26;100.00;101096.06;5004298;28;20555;-70
2022/07/28 01:26:43;;;;;;;2.20;1.30;;;;;;;10.01;100.00;101098.22;4984422;28;20224;-70
2022/07/28 01:29:23;;;;;;;2.73;1.30;;;;;;;10.02;100.00;101098.16;5005999;28;20616;-70
2022/07/28 01:31:56;;;;;;;1.27;1.17;;;;;;;10.12;100.00;101096.28;5000953;28;20650;-70
2022/07/28 01:34:29;;;;;;;1.53;1.23;;;;;;;10.18;100.00;101095.31;5019505;28;20202;-70
2022/07/28 01:36:59;;;;;;;4.27;1.43;;;;;;;9.95;100.00;101093.94;5007699;28;20210;-70
2022/07/28 01:39:31;;;;;;;1.97;1.13;;;;;;;10.10;100.00;101085.03;4996994;28;20207;-70
2022/07/28 01:41:59;;;;;;;1.50;0.97;;;;;;;10.09;100.00;101090.28;5005384;28;20552;-70
2022/07/28 01:44:28;;;;;;;1.20;1.10;;;;;;;10.14;100.00;101089.31;4993929;28;20572;-70
2022/07/28 01:46:58;;;;;;;2.53;1.30;;;;;;;10.14;100.00;101089.31;5002846;28;20204;-70
2022/07/28 01:49:26;;;;;;;1.37;1.27;;;;;;;9.98;100.00;101096.50;5012858;28;20670;-70
2022/07/28 01:51:55;;;;;;;2.63;1.10;;;;;;;9.76;100.00;101089.91;5007073;28;20663;-70
2022/07/28 01:54:23;;;;;;;1.40;1.13;;;;;;;9.73;100.00;101096.03;5003615;28;20213;-71
2022/07/28 01:56:52;;;;;;;1.30;1.20;;;;;;;9.93;100.00;101089.66;4997540;28;20218;-69
2022/07/28 01:59:19;;;;;;;0.97;0.90;;;;;;;9.83;100.00;101091.53;4984246;28;20302;-70
2022/07/28 02:01:49;;;;;;;2.73;1.27;;;;;;;9.99;100.00;101095.63;4995710;28;20280;-70
2022/07/28 02:04:19;;;;;;;1.57;1.47;;;;;;;10.10;100.00;101098.06;4994878;28;20208;-70
2022/07/28 02:06:48;;;;;;;1.20;1.10;;;;;;;9.99;100.00;101100.84;5011757;28;20236;-71
2022/07/28 02:09:15;;;;;;;0.90;0.90;;;;;;;9.83;100.00;101097.63;5015369;28;20220;-70
2022/07/28 02:11:44;;;;;;;0.93;0.93;;;;;;;9.71;100.00;101097.81;5004170;28;20208;-71
2022/07/28 02:14:14;;;;;;;1.37;0.97;;;;;;;9.85;100.00;101098.47;5004561;28;20209;-71
2022/07/28 02:16:45;;;;;;;2.40;1.20;;;;;;;9.98;100.00;101103.47;4996299;28;20229;-70
2022/07/28 02:19:13;;;;;;;1.60;1.00;;;;;;;9.89;100.00;101094.06;5015405;28;20202;-70
2022/07/28 02:21:42;;;;;;;1.40;1.20;;;;;;;9.92;100.00;101094.03;5010622;28;20649;-71
2022/07/28 02:24:11;;;;;;;1.60;1.50;;;;;;;9.94;100.00;101094.00;5002748;28;20193;-71
2022/07/28 02:26:44;;;;;;;1.23;1.00;;;;;;;9.85;100.00;101102.81;5006825;28;20217;-71
2022/07/28 02:29:13;;;;;;;1.07;0.97;;;;;;;9.73;100.00;101092.59;5016297;28;20197;-70
2022/07/28 02:31:46;;;;;;;1.40;1.30;;;;;;;9.78;100.00;101091.63;5006319;28;20645;-71
2022/07/28 02:34:15;;;;;;;1.23;1.13;;;;;;;9.54;100.00;101097.19;5013297;28;20672;-71
2022/07/28 02:36:50;;;;;;;3.17;1.10;;;;;;;9.38;100.00;101105.22;5015934;28;20212;-71
2022/07/28 02:39:22;;;;;;;1.30;1.10;;;;;;;9.51;100.00;101098.09;5010133;28;20222;-70
2022/07/28 02:41:51;;;;;;;1.17;1.10;;;;;;;9.58;100.00;101097.13;5003840;28;20557;-71
2022/07/28 02:44:21;;;;;;;2.57;1.30;;;;;;;9.66;100.00;101097.03;5016677;28;20207;-71
2022/07/28 02:46:52;;;;;;;1.60;1.07;;;;;;;9.59;100.00;101104.06;5000825;28;20228;-71
2022/07/28 02:49:23;;;;;;;1.50;1.30;;;;;;;9.66;100.00;101110.91;5007935;28;20539;-71
2022/07/28 02:51:52;;;;;;;1.40;1.30;;;;;;;9.59;100.00;101101.47;5012687;28;20199;-71
2022/07/28 02:54:20;;;;;;;1.37;1.27;;;;;;;9.40;100.00;101105.19;5005593;28;20188;-71
2022/07/28 02:56:49;;;;;;;5.07;1.37;;;;;;;9.79;100.00;101110.72;5001351;28;20573;-71
2022/07/28 02:59:17;;;;;;;1.37;1.23;;;;;;;9.41;100.00;101122.50;5003605;28;20673;-71
2022/07/28 03:01:45;;;;;;;1.53;1.13;;;;;;;9.27;100.00;101122.72;5009850;28;20775;-71
2022/07/28 03:04:12;;;;;;;2.53;1.50;;;;;;;9.25;100.00;101125.34;5025111;28;20197;-71
2022/07/28 03:06:40;;;;;;;1.30;1.00;;;;;;;9.34;100.00;101129.56;4997163;28;20800;-71
2022/07/28 03:09:09;;;;;;;1.23;1.10;;;;;;;9.43;100.00;101124.25;5000255;28;20212;-71
2022/07/28 03:11:36;;;;;;;1.70;1.30;;;;;;;9.41;100.00;101133.81;5011846;28;20203;-71
2022/07/28 03:14:02;;;;;;;1.37;1.23;;;;;;;9.38;100.00;101131.25;5009432;28;20594;-71
2022/07/28 03:16:29;;;;;;;4.73;1.10;;;;;;;9.32;100.00;101138.25;5010096;28;20233;-71
2022/07/28 03:18:56;;;;;;;1.33;1.20;;;;;;;9.55;100.00;101137.94;4998231;28;20264;-71
2022/07/28 03:21:22;;;;;;;3.07;1.10;;;;;;;9.26;100.00;101142.66;5003216;28;20209;-70
2022/07/28 03:23:50;;;;;;;2.13;1.13;;;;;;;9.35;100.00;101140.84;4996169;28;20565;-70
2022/07/28 03:26:36;;;;;;;1.30;1.07;;;;;;;9.11;100.00;101137.63;4999899;28;20221;-71
2022/07/28 03:29:04;;;;;;;2.43;1.43;;;;;;;9.03;100.00;101147.28;5010363;28;20680;-71
2022/07/28 03:31:33;;;;;;;2.50;1.33;;;;;;;9.06;100.00;101150.72;5001242;28;20232;-71
2022/07/28 03:34:00;;;;;;;1.67;1.00;;;;;;;9.18;100.00;101146.22;5003737;28;20676;-70
2022/07/28 03:36:38;;;;;;;1.43;1.30;;;;;;;9.21;100.00;101149.66;5006941;28;20209;-70
2022/07/28 03:39:10;;;;;;;1.37;1.27;;;;;;;9.17;100.00;101141.94;5018192;28;20197;-70
2022/07/28 03:41:40;;;;;;;1.83;1.30;;;;;;;9.15;100.00;101143.69;5010163;28;20215;-70
2022/07/28 03:44:08;;;;;;;1.13;1.03;;;;;;;9.47;100.00;101143.28;5013622;28;20228;-70
2022/07/28 03:46:35;;;;;;;1.83;1.40;;;;;;;9.43;100.00;101150.25;5006810;28;20216;-71
2022/07/28 03:49:01;;;;;;;1.10;1.00;;;;;;;9.48;100.00;101147.63;5013574;28;20196;-71
2022/07/28 03:51:28;;;;;;;4.13;1.43;;;;;;;9.39;100.00;101156.41;5003219;28;20219;-71
2022/07/28 03:53:54;;;;;;;3.67;1.60;;;;;;;9.24;100.00;101156.59;5007698;28;20204;-70
2022/07/28 03:56:21;;;;;;;1.00;1.00;;;;;;;9.64;100.00;101159.53;5017170;28;20220;-71
2022/07/28 03:58:48;;;;;;;3.93;1.50;;;;;;;9.74;100.00;101157.63;5014446;28;20204;-71
2022/07/28 04:01:15;;;;;;;1.40;1.30;;;;;;;9.62;100.00;101163.91;5000388;28;20200;-70
2022/07/28 04:03:41;;;;;;;2.90;1.60;;;;;;;9.55;100.00;101159.66;5018521;28;20209;-71
2022/07/28 04:06:08;;;;;;;1.83;1.37;;;;;;;9.42;100.00;101156.34;5001961;28;20217;-70
2022/07/28 04:08:34;;;;;;;3.50;1.47;;;;;;;9.47;100.00;101164.94;5009200;28;20663;-70
2022/07/28 04:11:01;;;;;;;2.43;1.67;;;;;;;9.64;100.00;101164.75;5010692;28;20216;-70
2022/07/28 04:13:27;;;;;;;2.83;1.63;;;;;;;9.88;100.00;101170.47;5013853;28;20208;-71
2022/07/28 04:15:55;;;;;;;2.60;1.27;;;;;;;10.04;100.00;101168.50;5007869;28;20596;-71
2022/07/28 04:18:21;;;;;;;2.87;1.30;;;;;;;9.99;100.00;101170.31;5008244;28;20204;-71
2022/07/28 04:20:48;;;;;;;5.27;1.60;;;;;;;10.15;100.00;101173.53;5015831;28;20205;-71
2022/07/28 04:23:14;;;;;;;2.70;1.50;;;;;;;10.02;100.00;101168.50;5001172;28;20291;-70
2022/07/28 04:25:40;;;;;;;1.70;1.60;;;;;;;10.36;100.00;101168.03;4997523;28;20231;-71
2022/07/28 04:28:08;;;;;;;1.30;1.20;;;;;;;10.59;100.00;101169.41;5013841;28;20209;-70
2022/07/28 04:30:34;;;;;;;1.30;1.20;;;;;;;10.65;100.00;101171.03;5009974;28;20735;-70
2022/07/28 04:33:02;;;;;;;1.73;1.40;;;;;;;10.92;100.00;101174.88;5000981;28;20202;-70
2022/07/28 04:35:28;;;;;;;1.40;1.20;;;;;;;11.16;100.00;101181.38;5009266;28;20221;-69
2022/07/28 04:37:57;;;;;;;2.17;1.43;;;;;;;11.28;100.00;101175.91;5007330;28;20236;-69
2022/07/28 04:40:25;;;;;;;2.70;1.33;;;;;;;11.32;100.00;101180.16;4995782;28;20231;-70
2022/07/28 04:42:51;;;;;;;1.63;1.27;;;;;;;11.34;100.00;101178.41;5001060;28;20207;-70
2022/07/28 04:45:18;;;;;;;1.90;1.30;;;;;;;11.39;100.00;101174.84;5007818;28;20230;-69
2022/07/28 04:47:44;;;;;;;1.63;1.40;;;;;;;11.58;100.00;101167.47;4998261;28;20196;-70
2022/07/28 04:50:14;;;;;;;2.07;1.20;;;;;;;11.81;100.00;101180.03;4998027;28;20204;-69
2022/07/28 04:52:41;;;;;;;3.00;1.67;;;;;;;11.95;100.00;101180.59;5003736;28;20208;-70
2022/07/28 04:55:09;;;;;;;2.43;1.40;;;;;;;11.96;100.00;101177.09;4998227;28;20242;-69
2022/07/28 04:57:35;;;;;;;1.73;1.33;;;;;;;12.12;100.00;101181.06;5004660;28;20226;-69
2022/07/28 05:00:02;;;;;;;1.53;1.20;;;;;;;12.11;100.00;101183.72;4997959;28;20215;-70
2022/07/28 05:02:29;;;;;;;1.30;1.20;;;;;;;12.26;100.00;101187.69;4998236;28;20736;-69
2022/07/28 05:04:55;;;;;;;2.43;1.57;;;;;;;12.52;100.00;101186.22;4995224;28;20232;-69
2022/07/28 05:07:23;;;;;;;1.40;1.30;;;;;;;12.57;100.00;101184.34;4999105;28;20195;-70
2022/07/28 05:09:49;;;;;;;3.10;1.30;;;;;;;12.66;100.00;101181.47;4990553;28;20197;-69
2022/07/28 05:12:16;;;;;;;1.30;0.97;;;;;;;12.85;100.00;101181.84;4993336;28;20646;-70
2022/07/28 05:14:42;;;;;;;1.83;1.50;;;;;;;12.49;100.00;101188.00;4997600;28;20210;-69
2022/07/28 05:17:08;;;;;;;5.27;1.10;;;;;;;12.40;100.00;101196.09;5003173;28;20219;-69
2022/07/28 05:19:35;;;;;;;3.80;1.20;;;;;;;12.23;99.06;101193.88;5000199;28;20197;-70
2022/07/28 05:22:01;;;;;;;2.30;1.47;;;;;;;12.30;100.00;101190.22;5004499;28;20200;-69
2022/07/28 05:24:29;;;;;;;1.43;1.10;;;;;;;12.41;99.61;101192.56;4999182;28;20209;-70
2022/07/28 05:26:55;;;;;;;4.70;1.20;;;;;;;12.68;100.00;101196.25;5000613;28;20297;-70
2022/07/28 05:29:22;;;;;;;1.20;1.00;;;;;;;12.86;100.00;101199.28;5000106;28;20209;-70
2022/07/28 05:31:48;;;;;;;2.30;1.43;;;;;;;12.84;97.36;101203.69;5003837;28;20209;-69
2022/07/28 05:34:15;;;;;;;1.27;1.17;;;;;;;12.89;97.35;101204.41;4993596;28;20204;-70
2022/07/28 05:36:41;;;;;;;4.20;1.20;;;;;;;12.87;95.00;101207.09;5005158;28;20573;-70
2022/07/28 05:39:08;;;;;;;4.30;1.40;;;;;;;12.85;94.13;101202.78;4992729;28;20201;-70
2022/07/28 05:41:35;;;;;;;2.60;1.00;;;;;;;12.98;96.57;101203.31;4998863;28;20284;-70
2022/07/28 05:44:02;;;;;;;1.93;1.20;;;;;;;13.16;96.88;101201.97;5001825;28;20197;-70
2022/07/28 05:46:28;;;;;;;1.33;1.00;;;;;;;13.34;95.47;101201.47;5004570;28;20213;-70
2022/07/28 05:48:55;;;;;;;1.90;1.50;;;;;;;13.33;92.07;101212.88;5007354;28;20213;-69
2022/07/28 05:51:21;;;;;;;3.10;1.17;;;;;;;13.46;93.74;101202.91;4996556;28;20208;-70
2022/07/28 05:53:48;;;;;;;1.00;0.90;;;;;;;13.63;91.96;101212.88;5006373;28;20575;-69
2022/07/28 05:56:14;;;;;;;1.57;1.20;;;;;;;13.75;91.06;101212.50;5010308;28;20223;-69
2022/07/28 05:58:42;;;;;;;1.30;1.00;;;;;;;13.93;90.57;101208.50;5006748;28;20208;-70
2022/07/28 06:01:09;;;;;;;1.30;1.10;;;;;;;14.06;88.18;101216.81;4996107;28;20710;-70
2022/07/28 06:03:35;;;;;;;1.30;0.77;;;;;;;14.22;85.28;101218.97;5005560;28;20209;-70
2022/07/28 06:06:01;;;;;;;1.00;0.90;;;;;;;14.30;83.58;101230.03;5005918;28;20226;-70
2022/07/28 06:08:28;;;;;;;1.00;1.00;;;;;;;14.41;83.50;101227.09;5016576;28;20602;-70
2022/07/28 06:11:07;;;;;;;1.40;1.00;;;;;;;14.57;83.05;101223.91;5011320;28;20204;-70
2022/07/28 06:13:34;;;;;;;2.20;0.90;;;;;;;14.74;81.92;101222.53;5011814;28;20198;-70
2022/07/28 06:16:02;;;;;;;1.03;0.90;;;;;;;14.84;80.26;101226.53;5002163;28;20232;-70
2022/07/28 06:18:28;;;;;;;0.90;0.90;;;;;;;14.99;81.61;101226.94;5003456;28;20211;-70
2022/07/28 06:20:55;;;;;;;1.10;0.80;;;;;;;15.14;82.80;101218.50;5004430;28;20219;-70
2022/07/28 06:23:22;;;;;;;2.83;0.90;;;;;;;15.34;82.17;101223.06;5004903;28;20254;-70
2022/07/28 06:25:49;;;;;;;0.70;0.67;;;;;;;15.41;80.97;101224.53;5001590;28;20640;-69
2022/07/28 06:28:17;;;;;;;2.27;1.30;;;;;;;15.58;83.38;101216.00;5004373;28;20205;-69
2022/07/28 06:30:43;;;;;;;2.80;1.10;;;;;;;15.79;80.70;101222.25;5012866;28;20735;-70
2022/07/28 06:33:11;;;;;;;1.50;0.73;;;;;;;15.96;79.94;101228.66;5005370;28;20380;-70
2022/07/28 06:35:38;;;;;;;1.17;1.07;;;;;;;16.13;81.93;101231.47;5004158;28;20231;-70
2022/07/28 06:38:04;;;;;;;2.50;1.07;;;;;;;16.30;76.14;101235.19;5000789;28;20226;-70
2022/07/28 06:40:31;;;;;;;1.00;0.80;;;;;;;16.47;78.74;101235.38;5000474;28;20630;-70
2022/07/28 06:42:57;;;;;;;1.57;1.00;;;;;;;16.64;77.91;101239.94;5005027;28;20733;-70
2022/07/28 06:45:24;;;;;;;0.97;0.90;;;;;;;16.78;76.42;101234.06;5011974;28;20247;-70
2022/07/28 06:47:51;;;;;;;2.73;1.03;;;;;;;16.87;72.56;101243.41;5006444;28;20203;-70
2022/07/28 06:50:19;;;;;;;0.73;0.73;;;;;;;17.02;73.75;101237.47;5014526;28;20219;-70
2022/07/28 06:52:46;;;;;;;3.77;1.07;;;;;;;17.15;69.68;101248.31;5000692;28;20205;-70
2022/07/28 06:55:14;;;;;;;1.60;1.10;;;;;;;17.28;67.31;101244.25;5004203;28;20577;-70
2022/07/28 06:57:41;;;;;;;0.73;0.70;;;;;;;17.36;65.66;101246.53;5013788;28;20909;-70
2022/07/28 07:00:11;;;;;;;1.17;0.80;;;;;;;17.50;67.16;101230.97;5001977;28;20213;-70
2022/07/28 07:02:38;;;;;;;0.80;0.80;;;;;;;17.69;67.95;101232.75;4993983;28;20423;-70
2022/07/28 07:05:05;;;;;;;2.60;0.97;;;;;;;17.79;66.29;101237.50;5007912;28;20275;-70
2022/07/28 07:07:32;;;;;;;1.33;0.87;;;;;;;17.96;64.30;101235.91;5009171;28;20555;-70
2022/07/28 07:09:59;;;;;;;0.90;0.73;;;;;;;18.06;61.60;101238.94;5002864;28;20204;-70
2022/07/28 07:12:25;;;;;;;1.70;0.70;;;;;;;18.15;61.54;101235.88;5008491;28;20200;-70
2022/07/28 07:14:52;;;;;;;5.30;0.80;;;;;;;18.21;61.49;101240.03;5009723;28;20584;-70
2022/07/28 07:17:19;;;;;;;1.83;0.80;;;;;;;18.39;59.82;101239.09;5018600;28;20239;-71
2022/07/28 07:19:45;;;;;;;0.67;0.67;;;;;;;18.44;58.27;101237.09;5001865;28;20204;-71
2022/07/28 07:22:13;;;;;;;2.83;0.63;;;;;;;18.50;57.74;101241.22;4999847;28;20201;-71
2022/07/28 07:24:41;;;;;;;5.00;0.87;;;;;;;18.65;58.48;101235.16;5006553;28;20222;-71
2022/07/28 07:27:07;;;;;;;3.47;1.00;;;;;;;18.81;58.88;101237.03;5007912;28;20193;-71
2022/07/28 07:29:34;;;;;;;1.07;0.60;;;;;;;18.93;56.60;101244.38;5003103;28;20205;-71
2022/07/28 07:32:00;;;;;;;1.43;0.80;;;;;;;19.05;56.59;101242.88;5007638;28;20211;-71
2022/07/28 07:34:26;;;;;;;1.43;0.77;;;;;;;19.22;56.54;101245.47;5002418;28;20211;-71
2022/07/28 07:36:53;;;;;;;0.60;0.50;;;;;;;19.32;55.58;101243.22;5013835;28;20199;-71
2022/07/28 07:39:19;;;;;;;1.50;0.83;;;;;;;19.49;54.87;101243.19;5016030;28;20201;-71
2022/07/28 07:41:47;;;;;;;1.53;0.50;;;;;;;19.61;53.86;101254.00;5003191;28;20204;-71
2022/07/28 07:44:13;;;;;;;0.90;0.60;;;;;;;19.61;51.74;101252.25;5005362;28;20224;-71
2022/07/28 07:46:40;;;;;;;1.33;0.80;;;;;;;19.70;54.00;101244.72;5003007;28;20255;-71
2022/07/28 07:49:06;;;;;;;0.60;0.60;;;;;;;19.75;52.94;101255.94;5005782;28;20196;-71
2022/07/28 07:51:33;;;;;;;0.77;0.70;;;;;;;19.89;50.95;101253.38;5001085;28;20575;-71
2022/07/28 07:53:59;;;;;;;1.47;0.80;;;;;;;20.00;50.42;101253.66;5009925;28;20638;-71
2022/07/28 07:56:25;;;;;;;0.67;0.60;;;;;;;20.15;49.21;101256.38;5011799;28;20247;-71
2022/07/28 07:58:53;;;;;;;1.20;0.57;;;;;;;20.28;47.46;101270.66;5010267;28;20226;-71
2022/07/28 08:01:19;;;;;;;1.23;0.77;;;;;;;20.30;46.48;101262.59;5009814;28;20209;-71
2022/07/28 08:03:46;;;;;;;0.87;0.67;;;;;;;20.33;47.04;101260.63;5006492;28;20215;-71
2022/07/28 08:06:12;;;;;;;0.70;0.67;;;;;;;20.36;47.44;101257.81;5003002;28;20707;-71
2022/07/28 08:08:39;;;;;;;1.03;0.60;;;;;;;20.39;46.48;101257.63;5000152;28;20207;-71
2022/07/28 08:11:05;;;;;;;1.53;0.70;;;;;;;20.22;46.65;101255.09;5000138;28;20213;-71
2022/07/28 08:13:31;;;;;;;1.93;0.70;;;;;;;20.48;49.34;101256.25;5002486;28;20211;-71
2022/07/28 08:15:59;;;;;;;1.10;0.83;;;;;;;20.54;47.03;101249.75;5007442;28;20236;-71
2022/07/28 08:18:25;;;;;;;2.53;0.80;;;;;;;20.59;45.96;101250.34;5001485;28;20213;-71
2022/07/28 08:20:52;;;;;;;4.20;0.83;;;;;;;20.71;46.77;101248.81;5004509;28;20215;-71
2022/07/28 08:23:18;;;;;;;0.70;0.60;;;;;;;20.84;45.34;101247.13;5002609;28;20205;-71
2022/07/28 08:25:44;;;;;;;0.60;0.60;;;;;;;20.92;46.24;101254.63;5001525;28;20220;-71
2022/07/28 08:28:11;;;;;;;1.30;0.70;;;;;;;20.95;44.48;101257.09;4998465;28;20204;-71
2022/07/28 08:30:37;;;;;;;1.57;0.60;;;;;;;21.11;46.17;101249.06;4994530;28;20198;-71
2022/07/28 08:33:05;;;;;;;1.60;0.83;;;;;;;21.28;44.27;101256.84;5005683;28;20201;-71
2022/07/28 08:35:31;;;;;;;0.80;0.57;;;;;;;21.48;45.42;101239.72;4992544;28;20213;-71
2022/07/28 08:37:58;;;;;;;1.30;0.73;;;;;;;21.69;46.46;101242.84;5000137;28;20221;-71
2022/07/28 08:40:24;;;;;;;1.03;0.60;;;;;;;21.65;46.53;101236.03;5001903;28;20197;-71
2022/07/28 08:43:00;;;;;;;0.50;0.50;;;;;;;21.63;44.31;101235.25;5007318;28;20205;-71
2022/07/28 08:45:29;;;;;;;2.40;0.67;;;;;;;21.59;43.06;101244.38;4999612;28;20220;-71
2022/07/28 08:47:57;;;;;;;2.13;0.80;;;;;;;21.40;42.95;101249.09;5006531;28;20207;-71
2022/07/28 08:50:25;;;;;;;0.70;0.70;;;;;;;21.09;43.04;101241.22;5005662;28;20244;-71
2022/07/28 08:52:53;;;;;;;4.90;2.37;;;;;;;21.10;42.62;101244.72;5002460;28;20573;-70
2022/07/28 08:55:24;;;;;;;1.27;0.50;;;;;;;21.27;42.80;101241.88;5008209;28;20236;-71
2022/07/28 08:57:53;;;;;;;0.70;0.40;;;;;;;21.43;42.14;101236.47;5009775;28;20212;-71
2022/07/28 09:00:21;;;;;;;1.10;0.60;;;;;;;21.47;42.56;101239.81;5014458;28;20251;-71
2022/07/28 09:02:49;;;;;;;0.77;0.50;;;;;;;21.75;43.35;101233.63;5009060;28;20216;-71
2022/07/28 09:05:17;;;;;;;1.20;0.73;;;;;;;21.87;42.63;101239.97;5010743;28;20220;-71
2022/07/28 09:07:48;;;;;;;0.97;0.60;;;;;;;21.97;44.32;101234.91;5009306;28;20201;-71
2022/07/28 09:10:15;;;;;;;0.90;0.70;;;;;;;22.03;41.88;101237.19;5000028;28;20258;-71
2022/07/28 09:12:41;;;;;;;0.93;0.60;;;;;;;22.08;41.59;101227.13;5009097;28;20200;-71
2022/07/28 09:15:10;;;;;;;1.00;0.60;;;;;;;22.27;42.15;101229.44;5018221;28;20496;-71
2022/07/28 09:17:37;;;;;;;1.02;0.60;;;;;;;22.51;41.75;101237.56;5005670;28;20614;-71
2022/07/28 09:20:05;;;;;;;1.00;0.70;;;;;;;22.82;42.35;101230.22;5007999;28;20571;-71
2022/07/28 09:22:32;;;;;;;0.83;0.60;;;;;;;22.73;39.42;101236.16;5007939;28;20834;-71
2022/07/28 09:25:02;;;;;;;1.02;0.80;;;;;;;22.49;39.15;101236.84;5009188;28;20228;-71
2022/07/28 09:27:42;;;;;;;1.90;0.98;;;;;;;22.25;39.59;101237.50;4999516;28;20252;-71
2022/07/28 09:30:10;;;;;;;2.95;0.82;;;;;;;22.42;41.69;101230.22;5009565;28;20480;-71
2022/07/28 09:32:37;;;;;;;0.57;0.57;;;;;;;22.50;42.89;101226.09;5009881;28;20208;-71
2022/07/28 09:35:03;;;;;;;0.88;0.60;;;;;;;22.54;40.63;101232.06;5008254;28;20589;-71
2022/07/28 09:37:31;;;;;;;1.20;0.60;;;;;;;22.23;39.47;101244.72;5007576;28;20538;-71
2022/07/28 09:40:12;;;;;;;1.05;0.60;;;;;;;22.16;39.65;101238.06;5001299;28;20288;-71
2022/07/28 09:42:45;;;;;;;1.20;0.80;;;;;;;22.30;39.26;101234.53;5013701;28;20294;-71
2022/07/28 09:45:12;;;;;;;1.77;0.98;;;;;;;22.44;40.18;101234.50;5016796;28;20315;-71
2022/07/28 09:47:39;;;;;;;1.33;0.50;;;;;;;22.73;38.83;101234.34;5013623;28;20665;-71
2022/07/28 09:50:06;;;;;;;0.50;0.50;;;;;;;22.86;38.72;101227.22;5007408;28;20197;-70
2022/07/28 09:52:35;;;;;;;1.08;0.55;;;;;;;22.78;38.55;101220.72;5000350;28;20208;-70
2022/07/28 09:55:04;;;;;;;0.50;0.50;;;;;;;23.15;39.92;101226.22;4999505;28;20213;-70
2022/07/28 09:57:32;;;;;;;1.40;0.70;;;;;;;23.08;37.99;101233.75;5004048;28;20208;-70
2022/07/28 09:59:59;;;;;;;0.65;0.60;;;;;;;23.23;38.62;101224.69;4999000;28;20205;-70
2022/07/28 10:02:28;;;;;;;1.95;0.70;;;;;;;23.02;37.31;101224.38;5000427;28;20215;-70
2022/07/28 10:04:55;;;;;;;0.50;0.40;;;;;;;22.94;37.98;101228.53;5006621;28;20224;-70
2022/07/28 10:07:21;;;;;;;1.50;0.70;;;;;;;22.95;37.77;101225.72;4999053;28;20673;-70
2022/07/28 10:09:56;;;;;;;0.52;0.52;;;;;;;23.09;38.00;101226.63;5004901;28;20208;-70
2022/07/28 10:12:24;;;;;;;1.20;0.63;;;;;;;23.27;38.56;101219.16;5011191;28;20459;-70
2022/07/28 10:14:54;;;;;;;0.90;0.60;;;;;;;23.38;37.63;101220.13;5013014;28;20244;-70
2022/07/28 10:17:27;;;;;;;1.65;0.68;;;;;;;23.28;38.04;101212.91;5010391;28;20291;-70
2022/07/28 10:19:56;;;;;;;1.27;0.80;;;;;;;23.54;39.38;101211.88;5016352;28;20672;-70
2022/07/28 10:22:26;;;;;;;0.55;0.50;;;;;;;23.76;40.04;101191.69;5005548;28;20544;-70
2022/07/28 10:24:53;;;;;;;1.33;0.50;;;;;;;24.06;38.34;101206.41;5014062;28;20235;-70
2022/07/28 10:27:21;;;;;;;1.40;0.75;;;;;;;24.24;37.04;101214.84;5013685;28;20592;-70
2022/07/28 10:29:55;;;;;;;0.73;0.57;;;;;;;24.18;36.55;101218.81;5015789;28;20638;-70
2022/07/28 10:32:22;;;;;;;1.25;0.50;;;;;;;23.95;36.61;101210.72;5007137;28;20750;-70
2022/07/28 10:34:53;;;;;;;1.48;0.40;;;;;;;24.13;35.82;101215.66;5018031;28;20224;-70
2022/07/28 10:37:23;;;;;;;1.23;0.65;;;;;;;23.99;36.20;101208.69;5009295;28;20208;-70
2022/07/28 10:39:55;;;;;;;2.00;0.60;;;;;;;24.31;37.23;101206.31;5004845;28;20646;-70
2022/07/28 10:42:22;;;;;;;1.35;0.70;;;;;;;24.33;35.93;101207.03;5008285;28;20522;-70
2022/07/28 10:44:50;;;;;;;0.88;0.70;;;;;;;24.07;36.64;101198.31;5011084;28;20224;-70
2022/07/28 10:47:19;;;;;;;0.75;0.50;;;;;;;23.92;35.61;101202.09;5008949;28;20196;-70
2022/07/28 10:49:47;;;;;;;1.23;0.68;;;;;;;23.79;35.73;101192.31;5012405;28;20289;-70
2022/07/28 10:52:16;;;;;;;1.52;0.68;;;;;;;23.89;35.79;101191.72;5005033;28;20204;-70
2022/07/28 10:54:49;;;;;;;0.93;0.65;;;;;;;23.97;35.24;101194.63;5016368;28;20732;-70
2022/07/28 10:57:17;;;;;;;0.95;0.65;;;;;;;23.62;35.43;101188.25;5012840;28;20736;-71
2022/07/28 10:59:58;;;;;;;1.50;1.00;;;;;;;23.95;35.90;101183.25;5013793;28;20235;-70
2022/07/28 11:02:50;;;;;;;1.38;0.70;;;;;;;23.95;35.57;101181.44;5003526;28;20208;-70
2022/07/28 11:05:41;;;;;;;2.05;0.80;;;;;;;24.03;35.78;101178.22;5014241;28;20576;-70
2022/07/28 11:08:09;;;;;;;1.30;0.50;;;;;;;24.07;35.11;101182.34;4988897;28;20749;-70
2022/07/28 11:10:46;;;;;;;0.80;0.60;;;;;;;23.97;35.31;101181.31;5012687;28;20204;-70
2022/07/28 11:13:25;;;;;;;1.77;0.60;;;;;;;23.75;35.02;101182.03;5011421;28;20243;-70
2022/07/28 11:15:52;;;;;;;1.10;0.60;;;;;;;23.78;35.18;101179.13;5008079;28;20238;-70
2022/07/28 11:18:19;;;;;;;1.45;0.60;;;;;;;23.82;35.13;101172.66;5014678;28;20297;-70
2022/07/28 11:21:06;;;;;;;1.20;0.55;;;;;;;23.84;34.89;101165.41;5015279;28;20672;-70
2022/07/28 11:23:40;;;;;;;2.70;0.70;;;;;;;23.93;35.07;101174.53;5007697;28;20205;-70
2022/07/28 11:26:29;;;;;;;0.80;0.68;;;;;;;24.08;34.93;101177.84;5019467;28;20357;-70
2022/07/28 11:29:15;;;;;;;0.60;0.60;;;;;;;24.06;34.98;101174.47;5013666;28;20280;-70
2022/07/28 11:32:01;;;;;;;0.57;0.55;;;;;;;24.18;35.23;101173.53;5014349;28;20656;-70